Time;durP1;ratioP1;P1;durP2;ratioP2;P2;SDS_P1;SDS_P2;PMS_P1;PMS_P2;Temp;Humidity;BMP_temperature;BMP_pressure;BME280_temperature;BME280_humidity;BME280_pressure;Samples;Min_cycle;Max_cycle;Signal;HPM_P1;HPM_P2
2021/10/10 00:01:51;;;;;;;3.50;1.88;;;;;;;;;;5077450;28;20024;-75
2021/10/10 00:04:17;;;;;;;3.47;2.45;;;;;;;;;;5095341;28;20024;-75
2021/10/10 00:06:43;;;;;;;2.67;1.70;;;;;;;;;;5093635;28;20024;-74
2021/10/10 00:09:09;;;;;;;4.25;1.88;;;;;;;;;;5095266;28;20031;-76
2021/10/10 00:11:36;;;;;;;4.68;2.22;;;;;;;;;;5095237;28;20453;-74
2021/10/10 00:14:02;;;;;;;5.95;2.03;;;;;;;;;;5093494;28;20078;-76
2021/10/10 00:16:28;;;;;;;2.35;1.80;;;;;;;;;;5095318;28;20377;-76
2021/10/10 00:18:54;;;;;;;4.95;1.58;;;;;;;;;;5095084;28;20024;-75
2021/10/10 00:21:20;;;;;;;4.22;2.03;;;;;;;;;;5094727;28;20573;-73
2021/10/10 00:23:47;;;;;;;4.18;1.65;;;;;;;;;;5095025;28;20020;-72
2021/10/10 00:26:13;;;;;;;4.32;1.83;;;;;;;;;;5094953;28;20031;-73
2021/10/10 00:28:39;;;;;;;3.75;1.83;;;;;;;;;;5094488;28;20095;-73
2021/10/10 00:31:05;;;;;;;4.53;2.08;;;;;;;;;;5094792;28;20073;-73
2021/10/10 00:33:31;;;;;;;3.17;1.88;;;;;;;;;;5101209;28;20032;-73
2021/10/10 00:35:58;;;;;;;4.10;2.13;;;;;;;;;;5113614;28;20485;-73
2021/10/10 00:38:24;;;;;;;2.92;2.05;;;;;;;;;;5100609;28;20392;-73
2021/10/10 00:40:50;;;;;;;3.38;1.95;;;;;;;;;;5095189;28;20020;-73
2021/10/10 00:43:16;;;;;;;4.55;2.78;;;;;;;;;;5093832;28;20116;-73
2021/10/10 00:45:49;;;;;;;3.85;2.08;;;;;;;;;;5095434;28;20024;-73
2021/10/10 00:48:15;;;;;;;3.80;2.25;;;;;;;;;;5093315;28;20107;-73
2021/10/10 00:50:41;;;;;;;3.20;2.33;;;;;;;;;;5095228;28;20021;-72
2021/10/10 00:53:08;;;;;;;3.47;1.90;;;;;;;;;;5094069;28;20048;-73
2021/10/10 00:55:37;;;;;;;3.13;1.75;;;;;;;;;;5094987;28;20532;-73
2021/10/10 00:58:04;;;;;;;4.22;2.13;;;;;;;;;;5095331;28;20036;-73
2021/10/10 01:00:30;;;;;;;4.15;1.92;;;;;;;;;;5094314;28;20054;-73
2021/10/10 01:03:00;;;;;;;4.20;2.97;;;;;;;;;;5094059;28;20035;-72
2021/10/10 01:05:28;;;;;;;3.53;1.90;;;;;;;;;;5094497;28;20040;-73
2021/10/10 01:07:55;;;;;;;5.85;2.28;;;;;;;;;;5094117;28;20158;-72
2021/10/10 01:10:27;;;;;;;3.28;1.88;;;;;;;;;;5093887;28;20471;-73
2021/10/10 01:12:53;;;;;;;2.50;1.52;;;;;;;;;;5094047;28;20050;-73
2021/10/10 01:15:19;;;;;;;3.75;2.10;;;;;;;;;;5094213;28;20073;-73
2021/10/10 01:17:49;;;;;;;3.78;1.88;;;;;;;;;;5093617;28;20404;-72
2021/10/10 01:20:15;;;;;;;3.80;1.90;;;;;;;;;;5094273;28;20077;-73
2021/10/10 01:22:42;;;;;;;3.47;2.25;;;;;;;;;;5093917;28;20024;-73
2021/10/10 01:25:08;;;;;;;3.38;1.90;;;;;;;;;;5093696;28;20043;-73
2021/10/10 01:27:34;;;;;;;3.90;1.90;;;;;;;;;;5093834;28;20141;-74
2021/10/10 01:30:00;;;;;;;3.45;2.10;;;;;;;;;;5092263;28;20115;-74
2021/10/10 01:32:27;;;;;;;5.22;2.50;;;;;;;;;;5092356;28;20424;-74
2021/10/10 01:34:53;;;;;;;3.15;1.98;;;;;;;;;;5093655;28;20111;-73
2021/10/10 01:37:19;;;;;;;6.60;3.13;;;;;;;;;;5092013;28;20016;-74
2021/10/10 01:39:45;;;;;;;5.75;2.83;;;;;;;;;;5093965;28;20365;-73
2021/10/10 01:42:12;;;;;;;7.60;4.15;;;;;;;;;;5093627;28;20518;-74
2021/10/10 01:44:38;;;;;;;5.85;3.03;;;;;;;;;;5093297;28;20021;-73
2021/10/10 01:47:04;;;;;;;4.65;2.28;;;;;;;;;;5093419;28;20480;-73
2021/10/10 01:49:31;;;;;;;2.88;1.77;;;;;;;;;;5093533;28;20107;-73
2021/10/10 01:51:57;;;;;;;3.38;2.00;;;;;;;;;;5092781;28;20128;-73
2021/10/10 01:54:23;;;;;;;2.72;1.65;;;;;;;;;;5093739;28;20102;-74
2021/10/10 01:56:49;;;;;;;3.53;2.03;;;;;;;;;;5093473;28;20524;-72
2021/10/10 01:59:16;;;;;;;3.15;1.70;;;;;;;;;;5093067;28;20107;-74
2021/10/10 02:01:42;;;;;;;3.20;1.77;;;;;;;;;;5092186;28;20468;-73
2021/10/10 02:04:08;;;;;;;8.68;3.53;;;;;;;;;;5092117;28;20040;-73
2021/10/10 02:06:34;;;;;;;4.65;2.05;;;;;;;;;;5093072;28;20023;-73
2021/10/10 02:09:00;;;;;;;8.40;3.97;;;;;;;;;;5093422;28;20031;-73
2021/10/10 02:11:28;;;;;;;10.10;4.10;;;;;;;;;;5092136;28;20020;-74
2021/10/10 02:13:54;;;;;;;7.18;3.15;;;;;;;;;;5091432;28;20042;-73
2021/10/10 02:16:20;;;;;;;9.43;3.17;;;;;;;;;;5093391;28;20024;-74
2021/10/10 02:18:46;;;;;;;8.38;4.28;;;;;;;;;;5093230;28;20055;-73
2021/10/10 02:21:12;;;;;;;5.22;2.92;;;;;;;;;;5092928;28;20129;-74
2021/10/10 02:23:38;;;;;;;4.68;2.03;;;;;;;;;;5091966;28;20426;-74
2021/10/10 02:26:04;;;;;;;5.18;2.22;;;;;;;;;;5093245;28;20101;-74
2021/10/10 02:28:31;;;;;;;3.63;1.92;;;;;;;;;;5092839;28;20107;-74
2021/10/10 02:30:57;;;;;;;3.55;1.92;;;;;;;;;;5091898;28;20020;-74
2021/10/10 02:33:24;;;;;;;3.42;2.00;;;;;;;;;;5092710;28;20484;-75
2021/10/10 02:35:50;;;;;;;3.28;1.88;;;;;;;;;;5093186;28;20032;-74
2021/10/10 02:38:16;;;;;;;3.22;1.80;;;;;;;;;;5093113;28;20024;-75
2021/10/10 02:40:42;;;;;;;4.57;2.00;;;;;;;;;;5092736;28;20353;-74
2021/10/10 02:43:08;;;;;;;2.85;1.60;;;;;;;;;;5093230;28;20016;-74
2021/10/10 02:45:35;;;;;;;2.95;1.70;;;;;;;;;;5091807;28;20032;-74
2021/10/10 02:48:01;;;;;;;4.20;2.22;;;;;;;;;;5092651;28;20499;-74
2021/10/10 02:50:27;;;;;;;4.10;2.38;;;;;;;;;;5093037;28;20035;-75
2021/10/10 02:52:55;;;;;;;3.53;2.17;;;;;;;;;;5092809;28;20044;-74
2021/10/10 02:55:21;;;;;;;3.33;2.00;;;;;;;;;;5091336;28;20024;-74
2021/10/10 02:57:47;;;;;;;5.45;2.30;;;;;;;;;;5093100;28;20020;-75
2021/10/10 03:00:14;;;;;;;4.20;2.22;;;;;;;;;;5094802;28;20024;-75
2021/10/10 03:02:40;;;;;;;5.90;2.83;;;;;;;;;;5094923;28;20028;-74
2021/10/10 03:05:06;;;;;;;5.80;3.05;;;;;;;;;;5095545;28;20023;-73
2021/10/10 03:07:32;;;;;;;6.32;3.60;;;;;;;;;;5096465;28;20052;-74
2021/10/10 03:09:59;;;;;;;6.30;3.80;;;;;;;;;;5094830;28;20016;-74
2021/10/10 03:12:25;;;;;;;6.32;3.28;;;;;;;;;;5096679;28;20031;-74
2021/10/10 03:14:51;;;;;;;4.35;2.50;;;;;;;;;;5096387;28;20388;-74
2021/10/10 03:17:17;;;;;;;3.58;2.05;;;;;;;;;;5096049;28;20472;-74
2021/10/10 03:19:43;;;;;;;4.90;2.30;;;;;;;;;;5096168;28;20035;-74
2021/10/10 03:22:10;;;;;;;3.78;2.17;;;;;;;;;;5096296;28;20028;-74
2021/10/10 03:24:36;;;;;;;4.60;2.55;;;;;;;;;;5095847;28;20050;-74
2021/10/10 03:27:02;;;;;;;5.47;2.70;;;;;;;;;;5094849;28;20446;-73
2021/10/10 03:29:28;;;;;;;4.20;2.17;;;;;;;;;;5094840;28;20485;-74
2021/10/10 03:31:54;;;;;;;3.83;2.10;;;;;;;;;;5094235;28;20032;-73
2021/10/10 03:34:20;;;;;;;3.05;2.05;;;;;;;;;;5095961;28;20099;-74
2021/10/10 03:36:47;;;;;;;4.65;2.35;;;;;;;;;;5095655;28;20425;-74
2021/10/10 03:39:13;;;;;;;3.30;1.85;;;;;;;;;;5094725;28;20101;-74
2021/10/10 03:41:39;;;;;;;4.25;2.28;;;;;;;;;;5095898;28;20396;-73
2021/10/10 03:44:05;;;;;;;3.25;1.90;;;;;;;;;;5095522;28;20016;-73
2021/10/10 03:46:32;;;;;;;4.28;2.50;;;;;;;;;;5095840;28;20016;-74
2021/10/10 03:48:58;;;;;;;4.50;1.88;;;;;;;;;;5095773;28;20027;-74
2021/10/10 03:51:24;;;;;;;3.47;1.98;;;;;;;;;;5094059;28;20027;-74
2021/10/10 03:54:47;;;;;;;4.38;2.28;;;;;;;;;;5114092;28;20055;-73
2021/10/10 03:56:48;;;;;;;5.38;2.47;;;;;;;;;;5106411;28;20035;-74
2021/10/10 03:59:15;;;;;;;3.17;2.05;;;;;;;;;;5096093;28;20020;-74
2021/10/10 04:01:42;;;;;;;4.68;2.17;;;;;;;;;;5094826;28;20532;-74
2021/10/10 04:04:08;;;;;;;4.18;2.20;;;;;;;;;;5094787;28;20028;-74
2021/10/10 04:06:34;;;;;;;4.15;2.30;;;;;;;;;;5095679;28;20024;-73
2021/10/10 04:09:01;;;;;;;4.18;2.30;;;;;;;;;;5096132;28;20020;-74
2021/10/10 04:11:27;;;;;;;4.18;2.10;;;;;;;;;;5095461;28;20021;-74
2021/10/10 04:13:53;;;;;;;3.60;1.80;;;;;;;;;;5094904;28;20032;-75
2021/10/10 04:16:19;;;;;;;3.17;2.05;;;;;;;;;;5096618;28;20026;-74
2021/10/10 04:18:45;;;;;;;5.15;2.47;;;;;;;;;;5094201;28;20082;-73
2021/10/10 04:21:11;;;;;;;5.32;2.25;;;;;;;;;;5093408;28;20026;-73
2021/10/10 04:23:38;;;;;;;8.70;4.93;;;;;;;;;;5093694;28;20074;-74
2021/10/10 04:26:04;;;;;;;6.32;3.67;;;;;;;;;;5093225;28;20077;-74
2021/10/10 04:28:30;;;;;;;4.20;2.70;;;;;;;;;;5093721;28;20422;-74
2021/10/10 04:30:56;;;;;;;3.45;2.15;;;;;;;;;;5093513;28;20024;-74
2021/10/10 04:33:23;;;;;;;3.30;1.88;;;;;;;;;;5094368;28;20115;-74
2021/10/10 04:35:49;;;;;;;2.90;1.85;;;;;;;;;;5093501;28;20085;-73
2021/10/10 04:38:18;;;;;;;3.42;2.00;;;;;;;;;;5094854;28;20102;-75
2021/10/10 04:40:44;;;;;;;2.88;1.80;;;;;;;;;;5094439;28;20399;-73
2021/10/10 04:43:10;;;;;;;5.13;3.88;;;;;;;;;;5094631;28;20020;-74
2021/10/10 04:45:37;;;;;;;6.28;2.35;;;;;;;;;;5093280;28;20024;-73
2021/10/10 04:48:03;;;;;;;2.75;1.98;;;;;;;;;;5092922;28;20059;-74
2021/10/10 04:50:29;;;;;;;3.47;2.08;;;;;;;;;;5094659;28;20065;-76
2021/10/10 04:52:55;;;;;;;3.00;2.00;;;;;;;;;;5094211;28;20470;-75
2021/10/10 04:55:22;;;;;;;4.07;2.15;;;;;;;;;;5092807;28;20024;-74
2021/10/10 04:57:48;;;;;;;3.90;2.13;;;;;;;;;;5094385;28;20051;-74
2021/10/10 05:00:14;;;;;;;3.10;2.00;;;;;;;;;;5094304;28;20495;-75
2021/10/10 05:02:40;;;;;;;4.32;1.95;;;;;;;;;;5092601;28;20032;-74
2021/10/10 05:05:07;;;;;;;3.30;1.92;;;;;;;;;;5094208;28;20039;-75
2021/10/10 05:07:33;;;;;;;3.88;2.13;;;;;;;;;;5092929;28;20492;-75
2021/10/10 05:09:59;;;;;;;3.83;2.22;;;;;;;;;;5093776;28;20028;-75
2021/10/10 05:12:25;;;;;;;5.13;2.60;;;;;;;;;;5094019;28;20032;-74
2021/10/10 05:14:51;;;;;;;6.78;3.20;;;;;;;;;;5094108;28;20017;-74
2021/10/10 05:17:17;;;;;;;7.53;3.20;;;;;;;;;;5092392;28;20028;-74
2021/10/10 05:19:43;;;;;;;6.53;3.25;;;;;;;;;;5093966;28;20027;-74
2021/10/10 05:22:10;;;;;;;7.55;2.80;;;;;;;;;;5093108;28;20020;-74
2021/10/10 05:24:36;;;;;;;5.13;2.22;;;;;;;;;;5093980;28;20024;-75
2021/10/10 05:27:02;;;;;;;4.28;2.40;;;;;;;;;;5093907;28;20016;-75
2021/10/10 05:29:28;;;;;;;6.25;3.05;;;;;;;;;;5093464;28;20373;-74
2021/10/10 05:31:54;;;;;;;7.68;4.55;;;;;;;;;;5093707;28;20035;-75
2021/10/10 05:34:21;;;;;;;8.00;3.67;;;;;;;;;;5092481;28;20024;-74
2021/10/10 05:36:47;;;;;;;7.88;3.45;;;;;;;;;;5093703;28;20020;-75
2021/10/10 05:39:13;;;;;;;6.53;4.43;;;;;;;;;;5093695;28;20105;-73
2021/10/10 05:41:39;;;;;;;5.82;3.00;;;;;;;;;;5092346;28;20381;-73
2021/10/10 05:44:05;;;;;;;4.13;2.38;;;;;;;;;;5093275;28;20498;-73
2021/10/10 05:46:32;;;;;;;4.93;2.58;;;;;;;;;;5092388;28;20024;-73
2021/10/10 05:48:58;;;;;;;5.20;2.70;;;;;;;;;;5092257;28;20028;-73
2021/10/10 05:51:24;;;;;;;4.38;2.45;;;;;;;;;;5092948;28;20520;-73
2021/10/10 05:53:50;;;;;;;3.95;2.00;;;;;;;;;;5092200;28;20442;-72
2021/10/10 05:56:17;;;;;;;6.03;2.83;;;;;;;;;;5093682;28;20472;-73
2021/10/10 05:58:44;;;;;;;4.10;2.33;;;;;;;;;;5091824;28;20097;-73
2021/10/10 06:01:11;;;;;;;3.83;1.90;;;;;;;;;;5093558;28;20098;-73
2021/10/10 06:03:38;;;;;;;6.05;2.22;;;;;;;;;;5092111;28;20024;-73
2021/10/10 06:06:04;;;;;;;4.35;2.25;;;;;;;;;;5091747;28;20034;-74
2021/10/10 06:08:30;;;;;;;4.80;2.80;;;;;;;;;;5092174;28;20441;-74
2021/10/10 06:10:56;;;;;;;3.92;2.58;;;;;;;;;;5093523;28;20028;-74
2021/10/10 06:13:23;;;;;;;3.45;2.10;;;;;;;;;;5093035;28;20060;-74
2021/10/10 06:15:50;;;;;;;6.13;2.83;;;;;;;;;;5093387;28;20517;-73
2021/10/10 06:18:16;;;;;;;3.45;2.30;;;;;;;;;;5093337;28;20057;-74
2021/10/10 06:20:42;;;;;;;5.97;2.95;;;;;;;;;;5093037;28;20016;-74
2021/10/10 06:23:09;;;;;;;6.70;3.75;;;;;;;;;;5093343;28;20028;-72
2021/10/10 06:25:35;;;;;;;7.50;3.50;;;;;;;;;;5092892;28;20021;-74
2021/10/10 06:28:01;;;;;;;7.38;3.65;;;;;;;;;;5092064;28;20032;-75
2021/10/10 06:30:27;;;;;;;6.28;3.17;;;;;;;;;;5093235;28;20095;-75
2021/10/10 06:32:53;;;;;;;4.75;3.00;;;;;;;;;;5091424;28;20097;-73
2021/10/10 06:35:19;;;;;;;5.57;3.60;;;;;;;;;;5095446;28;20038;-73
2021/10/10 06:37:46;;;;;;;5.28;3.00;;;;;;;;;;5097156;28;20051;-73
2021/10/10 06:40:12;;;;;;;4.80;3.13;;;;;;;;;;5096763;28;20431;-73
2021/10/10 06:42:38;;;;;;;4.65;2.40;;;;;;;;;;5095761;28;20432;-73
2021/10/10 06:45:05;;;;;;;3.65;1.80;;;;;;;;;;5096983;28;20077;-74
2021/10/10 06:49:34;;;;;;;6.45;3.15;;;;;;;;;;5111752;27;20380;-75
2021/10/10 06:52:00;;;;;;;8.48;5.03;;;;;;;;;;5110173;28;20104;-74
2021/10/10 06:55:09;;;;;;;9.98;6.07;;;;;;;;;;5070639;28;20718;-75
2021/10/10 06:57:36;;;;;;;11.98;7.28;;;;;;;;;;5069486;28;20033;-73
2021/10/10 07:00:02;;;;;;;12.63;7.88;;;;;;;;;;5069643;28;20416;-74
2021/10/10 07:02:28;;;;;;;11.57;7.13;;;;;;;;;;5070331;28;20066;-74
2021/10/10 07:05:45;;;;;;;20.08;11.15;;;;;;;;;;5111390;27;20392;-74
2021/10/10 07:09:48;;;;;;;20.58;12.50;;;;;;;;;;5131460;27;20672;-75
2021/10/10 07:12:14;;;;;;;16.10;11.18;;;;;;;;;;5110744;28;20433;-75
2021/10/10 07:14:41;;;;;;;16.30;11.73;;;;;;;;;;5112029;28;20024;-75
2021/10/10 07:19:37;;;;;;;14.98;10.63;;;;;;;;;;5111396;27;20464;-74
2021/10/10 07:22:14;;;;;;;12.57;7.70;;;;;;;;;;5109946;28;20055;-74
2021/10/10 07:26:27;;;;;;;11.75;7.55;;;;;;;;;;5111904;27;20388;-74
2021/10/10 07:28:53;;;;;;;12.00;7.60;;;;;;;;;;5111567;28;20028;-73
2021/10/10 07:31:20;;;;;;;17.20;12.75;;;;;;;;;;5111849;28;20053;-74
2021/10/10 07:33:46;;;;;;;15.27;10.63;;;;;;;;;;5111838;28;20069;-74
2021/10/10 07:36:12;;;;;;;14.38;9.48;;;;;;;;;;5110173;28;20388;-74
2021/10/10 07:39:31;;;;;;;17.33;11.32;;;;;;;;;;5111407;27;20521;-73
2021/10/10 07:41:57;;;;;;;14.48;10.85;;;;;;;;;;5111124;28;20085;-73
2021/10/10 07:44:28;;;;;;;17.27;13.43;;;;;;;;;;5110851;28;20476;-74
2021/10/10 07:47:06;;;;;;;21.42;13.68;;;;;;;;;;5109945;28;20027;-74
2021/10/10 07:49:32;;;;;;;16.88;10.85;;;;;;;;;;5109788;28;20027;-74
2021/10/10 07:51:58;;;;;;;15.75;10.40;;;;;;;;;;5109446;28;20023;-74
2021/10/10 07:56:03;;;;;;;14.05;7.70;;;;;;;;;;5111681;27;20450;-73
2021/10/10 07:58:29;;;;;;;11.05;6.97;;;;;;;;;;5110967;28;20028;-74
2021/10/10 08:00:55;;;;;;;11.32;6.30;;;;;;;;;;5111199;28;20456;-73
2021/10/10 08:03:47;;;;;;;10.85;8.00;;;;;;;;;;5070718;28;20907;-74
2021/10/10 08:06:13;;;;;;;9.82;6.50;;;;;;;;;;5070311;28;20056;-75
2021/10/10 08:13:04;;;;;;;11.15;7.40;;;;;;;;;;5110858;27;20427;-74
2021/10/10 08:15:30;;;;;;;13.90;9.18;;;;;;;;;;5111303;28;20103;-75
2021/10/10 08:17:56;;;;;;;9.75;6.38;;;;;;;;;;5110871;28;20020;-75
2021/10/10 08:20:23;;;;;;;9.85;5.70;;;;;;;;;;5111234;28;20107;-75
2021/10/10 08:22:49;;;;;;;9.45;6.00;;;;;;;;;;5111112;28;20110;-75
2021/10/10 08:27:42;;;;;;;10.25;7.07;;;;;;;;;;5111441;27;20401;-74
2021/10/10 08:30:12;;;;;;;11.07;7.72;;;;;;;;;;5110077;28;20062;-74
2021/10/10 08:32:39;;;;;;;9.88;6.88;;;;;;;;;;5110839;28;20036;-74
2021/10/10 08:35:06;;;;;;;13.13;7.78;;;;;;;;;;5111320;28;20026;-73
2021/10/10 08:37:32;;;;;;;11.75;6.97;;;;;;;;;;5111233;28;20498;-74
2021/10/10 08:39:58;;;;;;;11.20;6.72;;;;;;;;;;5109448;28;20391;-74
2021/10/10 08:42:31;;;;;;;14.38;8.07;;;;;;;;;;5111091;28;20103;-73
2021/10/10 08:47:44;;;;;;;10.13;6.80;;;;;;;;;;5111979;27;20870;-75
2021/10/10 08:50:17;;;;;;;10.85;5.13;;;;;;;;;;5111937;28;20027;-74
2021/10/10 08:52:44;;;;;;;11.32;6.10;;;;;;;;;;5110005;28;20538;-75
2021/10/10 08:55:11;;;;;;;8.13;5.10;;;;;;;;;;5110933;28;20028;-74
2021/10/10 08:58:25;;;;;;;8.95;5.28;;;;;;;;;;5112084;27;20404;-75
2021/10/10 09:01:00;;;;;;;9.70;5.57;;;;;;;;;;5109586;28;20024;-75
2021/10/10 09:03:27;;;;;;;11.57;7.03;;;;;;;;;;5110072;28;20028;-75
2021/10/10 09:07:36;;;;;;;9.73;6.63;;;;;;;;;;5110990;27;20412;-74
2021/10/10 09:11:17;;;;;;;10.85;6.93;;;;;;;;;;5111499;27;20521;-76
2021/10/10 09:13:43;;;;;;;16.85;12.82;;;;;;;;;;5111317;28;20055;-73
2021/10/10 09:17:53;;;;;;;36.85;27.15;;;;;;;;;;5111363;27;20524;-75
2021/10/10 09:20:25;;;;;;;25.73;18.20;;;;;;;;;;5111414;28;20028;-74
2021/10/10 09:22:52;;;;;;;18.63;13.88;;;;;;;;;;5109523;28;20533;-74
2021/10/10 09:28:21;;;;;;;24.38;19.42;;;;;;;;;;5111343;27;20411;-75
2021/10/10 09:30:48;;;;;;;27.00;18.00;;;;;;;;;;5111174;28;20392;-75
2021/10/10 09:33:15;;;;;;;23.20;16.17;;;;;;;;;;5111329;28;20051;-76
2021/10/10 09:35:42;;;;;;;24.52;15.77;;;;;;;;;;5110887;28;20069;-75
2021/10/10 09:38:16;;;;;;;29.83;19.33;;;;;;;;;;5109763;28;20047;-75
2021/10/10 09:40:52;;;;;;;20.25;13.38;;;;;;;;;;5109870;28;20031;-74
2021/10/10 09:45:08;;;;;;;29.65;20.30;;;;;;;;;;5110982;27;20897;-75
2021/10/10 09:47:17;;;;;;;27.48;18.15;;;;;;;;;;5105458;28;20563;-74
2021/10/10 09:49:43;;;;;;;22.52;15.52;;;;;;;;;;5109575;28;20023;-75
2021/10/10 09:53:32;;;;;;;28.77;18.85;;;;;;;;;;5111412;27;20811;-73
2021/10/10 09:56:07;;;;;;;31.27;19.77;;;;;;;;;;5111513;28;20046;-72
2021/10/10 09:58:37;;;;;;;26.80;17.80;;;;;;;;;;5109544;28;20097;-74
2021/10/10 10:01:13;;;;;;;34.22;22.23;;;;;;;;;;5109817;28;20051;-74
2021/10/10 10:03:59;;;;;;;34.58;24.88;;;;;;;;;;5110689;28;20527;-74
2021/10/10 10:09:08;;;;;;;14.60;9.52;;;;;;;;;;5111770;27;20359;-74
2021/10/10 10:11:45;;;;;;;14.20;9.57;;;;;;;;;;5109734;28;20065;-73
2021/10/10 10:15:57;;;;;;;28.00;18.63;;;;;;;;;;5111348;27;20420;-75
2021/10/10 10:18:24;;;;;;;13.02;7.53;;;;;;;;;;5110870;28;20023;-75
2021/10/10 10:20:50;;;;;;;12.55;7.38;;;;;;;;;;5111270;28;20054;-75
2021/10/10 10:25:36;;;;;;;15.90;11.40;;;;;;;;;;5131511;27;20484;-75
2021/10/10 10:28:03;;;;;;;16.25;10.77;;;;;;;;;;5093323;28;20055;-75
2021/10/10 10:30:29;;;;;;;14.80;10.48;;;;;;;;;;5111817;28;20028;-75
2021/10/10 10:32:55;;;;;;;10.23;6.88;;;;;;;;;;5078048;28;20051;-74
2021/10/10 10:35:22;;;;;;;11.70;7.53;;;;;;;;;;5114504;28;20020;-74
2021/10/10 10:38:13;;;;;;;9.98;6.07;;;;;;;;;;5111607;27;20321;-76
2021/10/10 10:40:40;;;;;;;11.23;6.72;;;;;;;;;;5110864;28;20032;-74
2021/10/10 10:43:07;;;;;;;12.60;9.52;;;;;;;;;;5111364;28;20103;-74
2021/10/10 10:47:46;;;;;;;9.25;6.05;;;;;;;;;;5111238;27;20404;-73
2021/10/10 10:52:27;;;;;;;9.50;5.35;;;;;;;;;;5111901;27;20457;-73
2021/10/10 10:54:53;;;;;;;8.27;5.18;;;;;;;;;;5127943;28;20032;-73
2021/10/10 10:57:41;;;;;;;13.05;8.55;;;;;;;;;;5111402;28;20024;-73
2021/10/10 11:02:52;;;;;;;14.70;9.75;;;;;;;;;;5070741;28;20935;-74
2021/10/10 11:05:37;;;;;;;16.23;9.93;;;;;;;;;;5070775;28;20392;-74
2021/10/10 11:08:17;;;;;;;15.95;11.23;;;;;;;;;;5110997;27;20314;-75
2021/10/10 11:13:27;;;;;;;17.30;10.93;;;;;;;;;;5091177;28;20067;-73
2021/10/10 11:17:05;;;;;;;11.63;6.93;;;;;;;;;;5111494;27;20924;-73
2021/10/10 11:19:32;;;;;;;17.52;10.15;;;;;;;;;;5127037;28;20423;-73
2021/10/10 11:22:48;;;;;;;15.77;7.93;;;;;;;;;;5111031;27;20458;-73
2021/10/10 11:27:56;;;;;;;14.95;8.27;;;;;;;;;;5111159;27;20397;-75
2021/10/10 11:31:52;;;;;;;10.40;7.25;;;;;;;;;;5111254;27;20380;-72
2021/10/10 11:34:20;;;;;;;11.45;6.35;;;;;;;;;;5109959;28;20038;-75
2021/10/10 11:38:12;;;;;;;14.82;9.48;;;;;;;;;;5111397;27;20912;-76
2021/10/10 11:40:42;;;;;;;15.93;11.98;;;;;;;;;;5111296;28;20059;-75
2021/10/10 11:44:00;;;;;;;10.23;6.82;;;;;;;;;;5110868;27;20400;-74
2021/10/10 11:46:26;;;;;;;9.18;5.63;;;;;;;;;;5111323;28;20028;-74
2021/10/10 11:48:55;;;;;;;10.43;6.97;;;;;;;;;;5111271;28;20031;-74
2021/10/10 11:51:35;;;;;;;10.10;5.72;;;;;;;;;;5110986;28;20508;-75
2021/10/10 11:54:02;;;;;;;10.23;5.75;;;;;;;;;;5111325;28;20027;-73
2021/10/10 11:56:28;;;;;;;8.85;5.22;;;;;;;;;;5109651;28;20460;-74
2021/10/10 11:59:08;;;;;;;8.20;5.32;;;;;;;;;;5109776;28;20038;-74
2021/10/10 12:02:00;;;;;;;8.20;5.13;;;;;;;;;;5111557;27;20389;-73
2021/10/10 12:04:26;;;;;;;8.63;5.38;;;;;;;;;;5109569;28;20106;-74
2021/10/10 12:10:40;;;;;;;8.45;5.28;;;;;;;;;;5131616;27;20120;-73
2021/10/10 12:13:59;;;;;;;9.68;6.25;;;;;;;;;;5111356;27;20393;-73
2021/10/10 12:16:25;;;;;;;8.20;4.65;;;;;;;;;;5110014;28;20031;-73
2021/10/10 12:18:56;;;;;;;8.38;4.82;;;;;;;;;;5110750;28;20077;-72
2021/10/10 12:21:23;;;;;;;35.45;21.08;;;;;;;;;;5109890;28;20023;-73
2021/10/10 12:24:23;;;;;;;21.50;13.02;;;;;;;;;;5111151;28;20065;-73
2021/10/10 12:33:22;;;;;;;39.78;23.25;;;;;;;;;;5131291;27;20312;-75
2021/10/10 12:36:55;;;;;;;30.15;15.18;;;;;;;;;;5070981;28;20854;-75
2021/10/10 12:39:38;;;;;;;39.17;21.60;;;;;;;;;;5070290;28;20029;-75
2021/10/10 12:42:04;;;;;;;21.10;12.20;;;;;;;;;;5070716;28;20024;-74
2021/10/10 12:44:31;;;;;;;12.23;6.78;;;;;;;;;;5069356;28;20274;-74
2021/10/10 12:46:57;;;;;;;7.88;4.47;;;;;;;;;;5070188;28;20445;-74
2021/10/10 12:51:49;;;;;;;12.27;6.95;;;;;;;;;;5111575;27;20420;-73
2021/10/10 12:54:17;;;;;;;8.88;5.22;;;;;;;;;;5110830;28;20027;-73
2021/10/10 12:58:43;;;;;;;16.90;9.32;;;;;;;;;;5111196;27;20314;-75
2021/10/10 13:01:10;;;;;;;8.00;5.20;;;;;;;;;;5109593;28;20051;-75
2021/10/10 13:03:36;;;;;;;12.98;8.80;;;;;;;;;;5110013;28;20028;-75
2021/10/10 13:06:02;;;;;;;12.45;7.50;;;;;;;;;;5111104;28;20095;-74
2021/10/10 13:08:28;;;;;;;7.88;4.43;;;;;;;;;;5110787;28;20044;-75
2021/10/10 13:13:52;;;;;;;12.55;5.78;;;;;;;;;;5111140;27;20408;-72
2021/10/10 13:18:15;;;;;;;11.45;7.07;;;;;;;;;;5111844;27;20409;-74
2021/10/10 13:20:41;;;;;;;13.25;8.57;;;;;;;;;;5110895;28;20089;-74
2021/10/10 13:25:14;;;;;;;11.10;6.40;;;;;;;;;;5111462;27;20400;-72
2021/10/10 13:27:41;;;;;;;12.30;7.80;;;;;;;;;;5109796;28;20097;-75
2021/10/10 13:31:10;;;;;;;14.43;8.75;;;;;;;;;;5071250;28;20400;-75
2021/10/10 13:33:36;;;;;;;12.85;8.52;;;;;;;;;;5070698;28;20025;-75
2021/10/10 13:36:05;;;;;;;10.55;6.78;;;;;;;;;;5070230;28;20389;-76
2021/10/10 13:38:32;;;;;;;10.25;6.60;;;;;;;;;;5070672;28;20028;-75
2021/10/10 13:42:23;;;;;;;11.98;7.18;;;;;;;;;;5111089;27;20389;-75
2021/10/10 13:44:50;;;;;;;13.20;6.25;;;;;;;;;;5111371;28;20042;-75
2021/10/10 13:47:55;;;;;;;19.08;12.77;;;;;;;;;;5111747;27;20408;-73
2021/10/10 13:50:21;;;;;;;14.82;10.85;;;;;;;;;;5113800;28;20081;-72
2021/10/10 13:52:47;;;;;;;12.05;7.53;;;;;;;;;;5122511;28;20020;-73
2021/10/10 13:55:15;;;;;;;13.77;8.52;;;;;;;;;;5114371;28;20024;-74
2021/10/10 13:57:41;;;;;;;13.77;8.35;;;;;;;;;;5110913;28;20104;-74
2021/10/10 14:00:09;;;;;;;12.85;8.07;;;;;;;;;;5111064;28;20551;-73
2021/10/10 14:02:35;;;;;;;12.40;6.97;;;;;;;;;;5126500;28;20032;-73
2021/10/10 14:05:02;;;;;;;14.77;9.00;;;;;;;;;;5111260;28;20030;-73
2021/10/10 14:07:28;;;;;;;13.38;8.05;;;;;;;;;;5111495;28;20094;-74
2021/10/10 14:09:55;;;;;;;13.40;6.63;;;;;;;;;;5127002;28;20034;-73
2021/10/10 14:12:54;;;;;;;15.85;8.50;;;;;;;;;;5111995;27;20392;-74
2021/10/10 14:15:21;;;;;;;11.88;7.60;;;;;;;;;;5109872;28;20028;-74
2021/10/10 14:20:30;;;;;;;34.45;17.52;;;;;;;;;;5111405;27;20669;-75
2021/10/10 14:22:57;;;;;;;25.30;14.55;;;;;;;;;;5090939;28;20027;-74
2021/10/10 14:25:23;;;;;;;26.33;13.77;;;;;;;;;;5090550;28;20020;-75
2021/10/10 14:30:40;;;;;;;17.67;9.70;;;;;;;;;;5111317;27;20415;-75
2021/10/10 14:34:21;;;;;;;23.35;14.90;;;;;;;;;;5111137;27;20454;-75
2021/10/10 14:36:48;;;;;;;27.05;16.10;;;;;;;;;;5111273;28;20480;-75
2021/10/10 14:39:17;;;;;;;19.80;11.77;;;;;;;;;;5109529;28;20110;-76
2021/10/10 14:42:04;;;;;;;18.77;11.35;;;;;;;;;;5111133;28;20039;-73
2021/10/10 14:51:06;;;;;;;13.18;8.43;;;;;;;;;;5111452;27;20454;-74
2021/10/10 14:55:11;;;;;;;19.90;13.40;;;;;;;;;;5111493;27;20389;-74
2021/10/10 14:57:40;;;;;;;17.15;9.65;;;;;;;;;;5111315;28;20028;-74
2021/10/10 15:01:05;;;;;;;17.40;10.43;;;;;;;;;;5070884;28;20500;-74
2021/10/10 15:03:31;;;;;;;11.75;7.55;;;;;;;;;;5070827;28;20029;-73
2021/10/10 15:05:58;;;;;;;18.15;9.57;;;;;;;;;;5068880;28;20025;-72
2021/10/10 15:08:26;;;;;;;16.45;11.82;;;;;;;;;;5070506;28;20028;-73
2021/10/10 15:10:53;;;;;;;26.67;14.98;;;;;;;;;;5070493;28;20469;-74
2021/10/10 15:13:19;;;;;;;26.88;17.90;;;;;;;;;;5070169;28;20362;-75
2021/10/10 15:15:45;;;;;;;22.20;13.32;;;;;;;;;;5070626;28;20057;-73
2021/10/10 15:20:57;;;;;;;17.55;8.82;;;;;;;;;;5111302;27;20989;-74
2021/10/10 15:23:23;;;;;;;21.23;13.32;;;;;;;;;;5127410;28;20027;-74
2021/10/10 15:25:50;;;;;;;17.88;11.18;;;;;;;;;;5111276;28;20024;-74
2021/10/10 15:29:32;;;;;;;51.63;29.10;;;;;;;;;;5131851;27;20305;-75
2021/10/10 15:33:29;;;;;;;25.40;13.07;;;;;;;;;;5111555;27;20508;-75
2021/10/10 15:37:33;;;;;;;21.52;10.40;;;;;;;;;;5111428;27;20818;-76
2021/10/10 15:39:59;;;;;;;23.15;11.98;;;;;;;;;;5111252;28;20063;-75
2021/10/10 15:42:27;;;;;;;27.05;14.85;;;;;;;;;;5110978;28;20027;-75
2021/10/10 15:44:53;;;;;;;14.43;8.60;;;;;;;;;;5109994;28;20442;-75
2021/10/10 15:47:19;;;;;;;13.32;7.65;;;;;;;;;;5111296;28;20032;-75
2021/10/10 15:50:06;;;;;;;15.88;9.60;;;;;;;;;;5111105;27;20921;-73
2021/10/10 15:52:33;;;;;;;14.77;8.88;;;;;;;;;;5111160;28;20077;-74
2021/10/10 15:57:00;;;;;;;14.15;7.57;;;;;;;;;;5110883;27;20320;-75
2021/10/10 16:01:51;;;;;;;14.60;8.95;;;;;;;;;;5111331;27;20404;-75
2021/10/10 16:04:17;;;;;;;17.52;8.98;;;;;;;;;;5109602;28;20434;-75
2021/10/10 16:06:43;;;;;;;13.15;8.23;;;;;;;;;;5111183;28;20069;-75
2021/10/10 16:09:09;;;;;;;17.25;10.10;;;;;;;;;;5111214;28;20073;-75
2021/10/10 16:11:36;;;;;;;19.35;12.18;;;;;;;;;;5110993;28;20031;-75
2021/10/10 16:14:02;;;;;;;21.13;12.20;;;;;;;;;;5109856;28;20028;-74
2021/10/10 16:16:28;;;;;;;12.68;8.20;;;;;;;;;;5110596;28;20068;-75
2021/10/10 16:20:09;;;;;;;18.05;9.68;;;;;;;;;;5111303;27;20529;-72
2021/10/10 16:24:07;;;;;;;12.63;7.72;;;;;;;;;;5111014;27;20310;-74
2021/10/10 16:26:34;;;;;;;16.98;10.18;;;;;;;;;;5111288;28;20032;-74
2021/10/10 16:29:01;;;;;;;24.75;14.95;;;;;;;;;;5109929;28;20024;-74
2021/10/10 16:33:40;;;;;;;25.17;16.48;;;;;;;;;;5070638;28;20895;-73
2021/10/10 16:36:09;;;;;;;;;;;;;;;;;;5071104;28;20060;-74